Time;durP1;ratioP1;P1;durP2;ratioP2;P2;SDS_P1;SDS_P2;PMS_P1;PMS_P2;Temp;Humidity;BMP_temperature;BMP_pressure;BME280_temperature;BME280_humidity;BME280_pressure;Samples;Min_cycle;Max_cycle;Signal;HPM_P1;HPM_P2
2022/07/27 00:00:22;;;;;;;8.52;0.57;;;;;;;13.63;100.00;101399.72;5071391;28;20034;-48
2022/07/27 00:02:48;;;;;;;2.20;0.52;;;;;;;13.66;100.00;101396.72;5082859;28;20016;-53
2022/07/27 00:05:14;;;;;;;5.80;1.15;;;;;;;13.67;100.00;101396.50;5076000;28;20157;-52
2022/07/27 00:07:40;;;;;;;0.80;0.65;;;;;;;13.71;100.00;101397.78;5075904;28;20070;-51
2022/07/27 00:10:06;;;;;;;2.53;0.70;;;;;;;13.75;100.00;101396.38;5083485;28;20038;-48
2022/07/27 00:12:31;;;;;;;1.52;0.32;;;;;;;13.79;100.00;101398.69;5079586;28;20032;-55
2022/07/27 00:14:58;;;;;;;4.57;1.08;;;;;;;13.83;100.00;101397.28;5083180;28;20357;-48
2022/07/27 00:17:25;;;;;;;5.13;0.57;;;;;;;13.86;100.00;101391.56;5088562;28;20452;-53
2022/07/27 00:19:50;;;;;;;2.65;1.20;;;;;;;13.88;100.00;101395.69;5084648;28;20131;-50
2022/07/27 00:22:16;;;;;;;5.85;0.43;;;;;;;13.90;100.00;101393.66;5087475;28;20110;-51
2022/07/27 00:24:42;;;;;;;1.90;0.50;;;;;;;13.96;100.00;101389.41;5084198;28;20048;-52
2022/07/27 00:27:07;;;;;;;6.55;0.55;;;;;;;13.92;100.00;101380.16;5079876;28;20024;-51
2022/07/27 00:29:33;;;;;;;4.65;0.88;;;;;;;13.87;100.00;101379.91;5083388;28;20043;-50
2022/07/27 00:31:59;;;;;;;7.50;0.90;;;;;;;13.79;100.00;101374.69;5088067;28;20031;-50
2022/07/27 00:34:24;;;;;;;2.20;0.73;;;;;;;13.71;100.00;101379.13;5082993;28;20028;-51
2022/07/27 00:36:49;;;;;;;1.50;0.28;;;;;;;13.59;100.00;101380.63;5082578;28;20044;-50
2022/07/27 00:39:15;;;;;;;5.47;0.40;;;;;;;13.47;100.00;101376.81;5084967;28;20032;-51
2022/07/27 00:41:40;;;;;;;0.95;0.17;;;;;;;13.36;100.00;101379.97;5085452;28;20020;-53
2022/07/27 00:44:05;;;;;;;2.42;0.28;;;;;;;13.27;100.00;101380.09;5079059;28;20039;-55
2022/07/27 00:46:32;;;;;;;1.50;0.20;;;;;;;13.20;100.00;101375.66;5083246;28;20105;-54
2022/07/27 00:48:58;;;;;;;4.43;0.25;;;;;;;13.13;100.00;101386.22;5083591;28;20358;-53
2022/07/27 00:51:24;;;;;;;2.90;0.45;;;;;;;13.08;100.00;101378.78;5081843;28;21115;-51
2022/07/27 00:53:53;;;;;;;2.63;0.60;;;;;;;13.02;100.00;101386.69;5077986;28;20107;-54
2022/07/27 00:56:20;;;;;;;2.67;1.08;;;;;;;13.00;100.00;101388.72;5075379;28;20035;-51
2022/07/27 00:58:48;;;;;;;4.30;0.35;;;;;;;13.05;100.00;101379.16;5081659;28;20032;-53
2022/07/27 01:01:15;;;;;;;3.20;0.25;;;;;;;13.09;100.00;101384.97;5078091;28;20024;-53
2022/07/27 01:03:40;;;;;;;4.35;0.45;;;;;;;13.09;100.00;101384.97;5080835;28;20033;-52
2022/07/27 01:06:06;;;;;;;4.28;1.35;;;;;;;13.10;100.00;101389.25;5076940;28;20047;-52
2022/07/27 01:08:32;;;;;;;1.33;0.55;;;;;;;13.07;100.00;101386.97;5086413;28;20055;-54
2022/07/27 01:10:58;;;;;;;3.67;0.30;;;;;;;13.03;100.00;101391.81;5077349;28;20127;-51
2022/07/27 01:13:25;;;;;;;3.05;0.90;;;;;;;12.99;100.00;101389.75;5080968;28;20027;-51
2022/07/27 01:15:51;;;;;;;4.43;0.30;;;;;;;12.98;100.00;101383.56;5080823;28;20032;-50
2022/07/27 01:18:31;;;;;;;2.35;0.20;;;;;;;12.97;100.00;101383.75;5088307;28;20024;-49
2022/07/27 01:20:58;;;;;;;3.55;0.52;;;;;;;12.98;100.00;101380.06;5083349;28;20027;-50
2022/07/27 01:23:24;;;;;;;1.70;0.30;;;;;;;12.95;100.00;101383.94;5081617;28;20031;-54
2022/07/27 01:25:50;;;;;;;3.38;1.02;;;;;;;12.92;100.00;101373.66;5077605;28;20020;-51
2022/07/27 01:28:15;;;;;;;5.97;0.95;;;;;;;12.88;100.00;101378.53;5080990;28;20036;-51
2022/07/27 01:30:41;;;;;;;5.35;0.30;;;;;;;12.83;100.00;101372.09;5086366;28;20528;-52
2022/07/27 01:33:08;;;;;;;4.55;1.10;;;;;;;12.74;100.00;101371.38;5070954;28;20028;-49
2022/07/27 01:35:34;;;;;;;2.85;0.52;;;;;;;12.67;100.00;101375.75;5077099;28;20047;-53
2022/07/27 01:38:00;;;;;;;1.02;0.15;;;;;;;12.60;100.00;101378.34;5083690;28;20107;-51
2022/07/27 01:40:26;;;;;;;5.13;1.10;;;;;;;12.50;100.00;101369.81;5078948;28;20107;-50
2022/07/27 01:42:51;;;;;;;2.08;0.38;;;;;;;12.37;100.00;101359.78;5069258;28;20681;-48
2022/07/27 01:45:17;;;;;;;2.55;0.25;;;;;;;12.27;100.00;101372.53;5084210;28;20161;-53
2022/07/27 01:47:43;;;;;;;5.22;1.55;;;;;;;12.16;100.00;101373.78;5086626;28;20716;-51
2022/07/27 01:50:09;;;;;;;2.53;0.60;;;;;;;12.08;100.00;101373.00;5087864;28;20494;-51
2022/07/27 01:52:34;;;;;;;2.72;0.70;;;;;;;11.99;100.00;101365.09;5082873;28;20046;-52
2022/07/27 01:54:59;;;;;;;5.28;0.40;;;;;;;11.94;100.00;101370.13;5078875;28;20107;-54
2022/07/27 01:57:25;;;;;;;2.63;0.50;;;;;;;11.85;100.00;101376.50;5086006;28;20036;-50
2022/07/27 01:59:52;;;;;;;0.40;0.25;;;;;;;11.74;100.00;101376.88;5072751;28;20029;-50
2022/07/27 02:02:17;;;;;;;4.50;1.05;;;;;;;11.64;100.00;101378.94;5088174;28;20028;-54
2022/07/27 02:04:43;;;;;;;2.17;0.32;;;;;;;11.57;100.00;101378.84;5087983;28;20081;-50
2022/07/27 02:07:08;;;;;;;3.88;0.30;;;;;;;11.50;100.00;101381.34;5077217;28;21038;-54
2022/07/27 02:09:34;;;;;;;2.47;0.70;;;;;;;11.41;100.00;101382.41;5088481;28;20016;-48
2022/07/27 02:14:43;;;;;;;1.65;0.40;;;;;;;11.27;100.00;101383.16;5087093;28;20128;-49
2022/07/27 02:17:09;;;;;;;1.45;0.15;;;;;;;11.21;100.00;101382.03;5084243;28;20528;-50
2022/07/27 02:19:34;;;;;;;2.88;0.47;;;;;;;11.15;100.00;101385.34;5084026;28;20545;-49
2022/07/27 02:22:00;;;;;;;4.18;0.85;;;;;;;11.10;100.00;101382.38;5078963;28;20177;-51
2022/07/27 02:24:26;;;;;;;1.75;0.40;;;;;;;11.06;100.00;101379.25;5085527;28;20077;-49
2022/07/27 02:26:51;;;;;;;1.80;0.93;;;;;;;11.01;100.00;101384.25;5087064;28;20036;-48
2022/07/27 02:29:17;;;;;;;1.10;0.25;;;;;;;10.92;100.00;101377.34;5087328;28;20020;-52
2022/07/27 02:31:42;;;;;;;6.55;1.52;;;;;;;10.86;100.00;101375.34;5086848;28;20563;-48
2022/07/27 02:34:07;;;;;;;4.60;0.30;;;;;;;10.83;100.00;101370.38;5085303;28;20028;-51
2022/07/27 02:36:33;;;;;;;1.23;0.38;;;;;;;10.75;100.00;101373.06;5087456;28;20103;-50
2022/07/27 02:38:58;;;;;;;1.90;1.20;;;;;;;10.66;100.00;101367.78;5090181;28;20049;-48
2022/07/27 02:41:24;;;;;;;3.38;0.75;;;;;;;10.59;100.00;101372.13;5089303;28;20028;-51
2022/07/27 02:43:49;;;;;;;1.58;0.35;;;;;;;10.53;100.00;101372.78;5085372;28;20035;-50
2022/07/27 02:46:14;;;;;;;3.85;0.32;;;;;;;10.48;100.00;101373.31;5081039;28;20495;-51
2022/07/27 02:48:40;;;;;;;1.63;0.55;;;;;;;10.44;100.00;101365.84;5089018;28;20020;-49
2022/07/27 02:51:05;;;;;;;2.15;0.77;;;;;;;10.39;100.00;101370.81;5074766;28;20116;-51
2022/07/27 02:53:31;;;;;;;2.58;0.65;;;;;;;10.33;100.00;101363.56;5088826;28;20119;-51
2022/07/27 02:55:57;;;;;;;3.50;0.40;;;;;;;10.26;100.00;101361.53;5083321;28;20028;-53
2022/07/27 02:58:23;;;;;;;2.65;0.68;;;;;;;10.18;100.00;101360.72;5083874;28;20024;-55
2022/07/27 03:00:49;;;;;;;4.03;0.68;;;;;;;10.09;100.00;101372.28;5082076;28;20042;-51
2022/07/27 03:03:15;;;;;;;0.88;0.32;;;;;;;10.05;100.00;101374.47;5086974;28;20042;-54
2022/07/27 03:05:40;;;;;;;1.95;0.38;;;;;;;10.00;100.00;101369.66;5087320;28;20024;-51
2022/07/27 03:08:06;;;;;;;1.40;0.50;;;;;;;9.99;100.00;101367.16;5080018;28;20559;-49
2022/07/27 03:10:32;;;;;;;1.02;0.35;;;;;;;10.03;100.00;101373.78;5080851;28;20418;-52
2022/07/27 03:12:57;;;;;;;0.73;0.45;;;;;;;10.01;100.00;101373.94;5078988;28;20111;-50
2022/07/27 03:15:23;;;;;;;1.30;0.50;;;;;;;9.92;100.00;101376.78;5087528;28;20368;-53
2022/07/27 03:17:49;;;;;;;2.38;0.20;;;;;;;9.82;100.00;101371.63;5087305;28;20116;-50
2022/07/27 03:20:14;;;;;;;2.97;0.35;;;;;;;9.78;100.00;101379.09;5085678;28;20433;-50
2022/07/27 03:22:40;;;;;;;1.95;0.45;;;;;;;9.78;100.00;101381.75;5072443;28;20028;-51
2022/07/27 03:25:07;;;;;;;1.45;0.40;;;;;;;9.80;100.00;101381.56;5080671;28;20034;-51
2022/07/27 03:27:33;;;;;;;2.60;0.35;;;;;;;9.80;100.00;101377.09;5085930;28;20088;-53
2022/07/27 03:29:58;;;;;;;1.20;0.20;;;;;;;9.80;100.00;101376.25;5084794;28;20072;-53
2022/07/27 03:32:23;;;;;;;3.25;0.88;;;;;;;9.79;100.00;101378.09;5080161;28;20465;-48
2022/07/27 03:34:49;;;;;;;2.15;0.50;;;;;;;9.83;100.00;101374.13;5082456;28;20042;-52
2022/07/27 03:37:16;;;;;;;0.57;0.45;;;;;;;9.85;100.00;101375.78;5085600;28;20032;-48
2022/07/27 03:39:41;;;;;;;2.10;0.47;;;;;;;9.84;100.00;101374.94;5087294;28;20031;-52
2022/07/27 03:42:07;;;;;;;1.80;0.20;;;;;;;9.82;100.00;101380.41;5077600;28;20404;-51
2022/07/27 03:44:32;;;;;;;3.05;0.30;;;;;;;9.83;100.00;101379.44;5084652;28;20085;-51
2022/07/27 03:46:58;;;;;;;3.30;0.30;;;;;;;9.83;100.00;101379.44;5084448;28;20458;-53
2022/07/27 03:49:23;;;;;;;6.75;0.50;;;;;;;9.85;100.00;101381.91;5087628;28;20020;-51
2022/07/27 03:51:49;;;;;;;9.20;0.82;;;;;;;9.89;100.00;101383.25;5088875;28;20038;-48
2022/07/27 03:54:16;;;;;;;3.42;2.67;;;;;;;9.86;100.00;101382.72;5082319;28;20149;-52
2022/07/27 03:56:42;;;;;;;1.10;0.30;;;;;;;9.81;100.00;101384.06;5081061;28;20024;-52
2022/07/27 03:59:08;;;;;;;2.13;0.85;;;;;;;9.83;100.00;101381.22;5084058;28;20466;-52
2022/07/27 04:01:34;;;;;;;1.02;0.38;;;;;;;9.80;100.00;101378.91;5076699;28;20020;-53
2022/07/27 04:03:59;;;;;;;0.85;0.60;;;;;;;9.75;100.00;101374.09;5084005;28;20103;-51
2022/07/27 04:06:25;;;;;;;3.00;0.30;;;;;;;9.68;100.00;101385.50;5082186;28;20028;-52
2022/07/27 04:08:50;;;;;;;1.17;0.50;;;;;;;9.62;100.00;101384.34;5085460;28;20396;-49
2022/07/27 04:11:16;;;;;;;1.55;0.43;;;;;;;9.57;100.00;101384.00;5082658;28;20457;-54
2022/07/27 04:13:42;;;;;;;4.15;0.55;;;;;;;9.49;100.00;101376.03;5083610;28;20028;-50
2022/07/27 04:16:08;;;;;;;1.77;0.40;;;;;;;9.42;100.00;101385.63;5088609;28;20024;-51
2022/07/27 04:18:33;;;;;;;1.05;0.32;;;;;;;9.38;100.00;101387.75;5085142;28;20640;-54
2022/07/27 04:21:02;;;;;;;3.78;1.80;;;;;;;9.34;100.00;101392.53;5087680;28;20028;-49
2022/07/27 04:23:28;;;;;;;3.10;1.02;;;;;;;9.29;100.00;101392.22;5086871;28;20077;-52
2022/07/27 04:25:53;;;;;;;4.78;1.13;;;;;;;9.30;100.00;101393.03;5079831;28;20115;-51
2022/07/27 04:28:19;;;;;;;1.45;0.32;;;;;;;9.30;100.00;101391.22;5086015;28;20445;-50
2022/07/27 04:30:44;;;;;;;1.70;0.20;;;;;;;9.30;100.00;101388.56;5082241;28;20024;-50
2022/07/27 04:33:09;;;;;;;3.72;1.58;;;;;;;9.27;100.00;101393.38;5076346;28;20042;-50
2022/07/27 04:35:35;;;;;;;2.45;0.40;;;;;;;9.26;100.00;101392.50;5079998;28;20032;-52
2022/07/27 04:38:01;;;;;;;4.72;0.88;;;;;;;9.25;100.00;101393.50;5078305;28;20034;-52
2022/07/27 04:40:31;;;;;;;2.53;1.13;;;;;;;9.16;100.00;101387.38;5083587;28;20028;-51
2022/07/27 04:42:58;;;;;;;1.33;0.65;;;;;;;9.10;100.00;101387.16;5086206;28;20072;-52
2022/07/27 04:45:23;;;;;;;3.03;0.30;;;;;;;9.10;100.00;101397.75;5084680;28;20040;-52
2022/07/27 04:47:49;;;;;;;1.20;0.70;;;;;;;9.08;100.00;101394.44;5086974;28;20050;-53
2022/07/27 04:50:14;;;;;;;2.58;0.40;;;;;;;9.07;100.00;101396.25;5078550;28;20078;-50
2022/07/27 04:52:39;;;;;;;0.93;0.38;;;;;;;9.08;100.00;101400.53;5084317;28;20028;-52
2022/07/27 04:55:05;;;;;;;3.60;0.57;;;;;;;9.11;100.00;101404.69;5081232;28;20127;-51
2022/07/27 04:57:30;;;;;;;2.70;0.50;;;;;;;9.11;100.00;101407.34;5086404;28;20067;-52
2022/07/27 04:59:56;;;;;;;5.07;0.95;;;;;;;9.10;100.00;101405.69;5078209;28;20028;-51
2022/07/27 05:02:21;;;;;;;2.03;0.47;;;;;;;9.11;100.00;101409.97;5082999;28;20126;-52
2022/07/27 05:04:46;;;;;;;3.70;0.47;;;;;;;9.11;100.00;101412.63;5085837;28;20035;-52
2022/07/27 05:07:12;;;;;;;1.73;0.45;;;;;;;9.12;100.00;101409.00;5083642;28;20054;-52
2022/07/27 05:09:37;;;;;;;4.93;0.50;;;;;;;9.13;100.00;101414.13;5077636;28;20038;-48
2022/07/27 05:12:03;;;;;;;1.35;0.38;;;;;;;9.14;100.00;101414.97;5086709;28;20103;-49
2022/07/27 05:14:28;;;;;;;2.88;0.63;;;;;;;9.14;100.00;101412.34;5080178;28;20080;-48
2022/07/27 05:16:53;;;;;;;7.60;0.38;;;;;;;9.14;100.00;101412.34;5085939;28;20038;-51
2022/07/27 05:19:19;;;;;;;2.85;0.50;;;;;;;9.14;100.00;101412.34;5086668;28;20119;-53
2022/07/27 05:21:44;;;;;;;0.98;0.50;;;;;;;9.15;100.00;101409.50;5083626;28;20480;-50
2022/07/27 05:24:10;;;;;;;4.15;0.98;;;;;;;9.17;100.00;101420.78;5085812;28;20046;-51
2022/07/27 05:26:36;;;;;;;0.70;0.17;;;;;;;9.21;100.00;101415.97;5081909;28;20099;-48
2022/07/27 05:29:02;;;;;;;1.25;0.65;;;;;;;9.24;100.00;101415.69;5086324;28;20059;-50
2022/07/27 05:31:27;;;;;;;2.83;0.65;;;;;;;9.30;100.00;101419.50;5083689;28;20058;-50
2022/07/27 05:33:53;;;;;;;1.00;0.90;;;;;;;9.37;100.00;101423.16;5078988;28;20028;-49
2022/07/27 05:36:18;;;;;;;3.13;0.82;;;;;;;9.41;100.00;101426.31;5084347;28;20384;-48
2022/07/27 05:38:44;;;;;;;5.28;1.15;;;;;;;9.45;100.00;101425.84;5084047;28;20066;-47
2022/07/27 05:41:10;;;;;;;3.70;0.88;;;;;;;9.50;100.00;101422.69;5083196;28;20116;-47
2022/07/27 05:43:35;;;;;;;1.65;1.25;;;;;;;9.56;100.00;101430.00;5073592;28;20089;-49
2022/07/27 05:46:01;;;;;;;4.20;1.10;;;;;;;9.64;100.00;101423.91;5078410;28;20031;-49
2022/07/27 05:48:26;;;;;;;4.03;0.73;;;;;;;9.74;100.00;101429.91;5083412;28;20036;-52
2022/07/27 05:50:52;;;;;;;5.55;1.42;;;;;;;9.81;100.00;101423.78;5078329;28;20020;-51
2022/07/27 05:53:17;;;;;;;3.35;0.60;;;;;;;9.90;100.00;101429.09;5081164;28;20492;-51
2022/07/27 05:55:43;;;;;;;6.40;1.70;;;;;;;9.99;100.00;101436.91;5085020;28;20442;-47
2022/07/27 05:58:08;;;;;;;1.00;0.77;;;;;;;10.07;100.00;101432.56;5085847;28;20074;-52
2022/07/27 06:00:34;;;;;;;2.05;0.30;;;;;;;10.10;100.00;101435.75;5082403;28;20119;-50
2022/07/27 06:02:59;;;;;;;5.35;1.10;;;;;;;10.14;100.00;101431.75;5082869;28;20073;-47
2022/07/27 06:05:25;;;;;;;4.93;1.58;;;;;;;10.22;100.00;101436.22;5083487;28;20039;-48
2022/07/27 06:08:07;;;;;;;2.15;0.55;;;;;;;10.31;100.00;101429.97;5083184;28;20090;-47
2022/07/27 06:10:35;;;;;;;4.40;1.10;;;;;;;10.43;100.00;101430.47;5085455;28;20032;-49
2022/07/27 06:13:02;;;;;;;3.90;0.55;;;;;;;10.53;100.00;101427.63;5085059;28;20032;-50
2022/07/27 06:15:28;;;;;;;2.35;0.73;;;;;;;10.62;100.00;101432.78;5083926;28;20031;-51
2022/07/27 06:17:53;;;;;;;3.22;1.30;;;;;;;10.73;100.00;101439.53;5084967;28;20028;-49
2022/07/27 06:20:20;;;;;;;1.95;0.35;;;;;;;10.83;100.00;101440.19;5082594;28;20497;-52
2022/07/27 06:22:51;;;;;;;2.70;0.70;;;;;;;10.96;100.00;101434.34;5082657;28;20024;-51
2022/07/27 06:25:18;;;;;;;2.67;0.10;;;;;;;11.08;100.00;101438.31;5082101;28;20040;-49
2022/07/27 06:27:43;;;;;;;0.63;0.63;;;;;;;11.18;100.00;101438.13;5084611;28;20028;-50
2022/07/27 06:30:15;;;;;;;3.97;0.65;;;;;;;11.29;100.00;101444.88;5085782;28;20309;-51
2022/07/27 06:32:41;;;;;;;3.55;0.85;;;;;;;11.40;100.00;101439.16;5071513;28;20046;-51
2022/07/27 06:35:07;;;;;;;1.13;0.25;;;;;;;11.54;100.00;101441.09;5078799;28;20032;-54
2022/07/27 06:37:34;;;;;;;2.15;0.50;;;;;;;11.71;100.00;101447.16;5084663;28;20388;-51
2022/07/27 06:40:00;;;;;;;1.83;0.38;;;;;;;11.87;100.00;101440.94;5080297;28;20361;-52
2022/07/27 06:42:26;;;;;;;4.97;1.35;;;;;;;12.04;100.00;101440.84;5082950;28;20032;-51
2022/07/27 06:44:51;;;;;;;8.95;1.55;;;;;;;12.22;100.00;101430.72;5085003;28;20627;-52
2022/07/27 06:47:17;;;;;;;1.45;0.55;;;;;;;12.38;100.00;101425.25;5086158;28;20036;-51
2022/07/27 06:49:42;;;;;;;1.45;0.55;;;;;;;12.54;100.00;101439.41;5086799;28;20020;-50
2022/07/27 06:52:08;;;;;;;3.38;0.93;;;;;;;12.68;100.00;101435.97;5083519;28;20486;-54
2022/07/27 06:54:33;;;;;;;8.07;1.30;;;;;;;12.80;100.00;101434.53;5075692;28;20477;-52
2022/07/27 06:56:59;;;;;;;12.00;1.00;;;;;;;12.96;100.00;101436.19;5077068;28;20119;-50
2022/07/27 06:59:24;;;;;;;5.28;0.52;;;;;;;13.09;100.00;101431.03;5078661;28;20028;-52
2022/07/27 07:01:50;;;;;;;4.93;0.93;;;;;;;13.26;100.00;101431.69;5082708;28;20032;-50
2022/07/27 07:04:16;;;;;;;5.95;0.65;;;;;;;13.51;100.00;101439.38;5077661;28;20401;-53
2022/07/27 07:06:41;;;;;;;1.23;0.25;;;;;;;13.75;100.00;101443.53;5074519;28;20113;-51
2022/07/27 07:09:07;;;;;;;2.15;1.17;;;;;;;14.04;100.00;101442.59;5083557;28;20476;-54
2022/07/27 07:11:32;;;;;;;4.63;0.85;;;;;;;14.31;100.00;101438.34;5084894;28;20099;-49
2022/07/27 07:13:58;;;;;;;5.60;0.63;;;;;;;14.52;100.00;101429.47;5081945;28;20046;-51
2022/07/27 07:16:23;;;;;;;5.88;1.17;;;;;;;14.71;100.00;101428.00;5085723;28;20109;-51
2022/07/27 07:18:49;;;;;;;3.33;0.47;;;;;;;14.87;100.00;101416.19;5079270;28;21191;-52
2022/07/27 07:21:15;;;;;;;1.77;1.08;;;;;;;14.98;100.00;101390.78;5080825;28;20028;-46
2022/07/27 07:23:40;;;;;;;3.55;0.20;;;;;;;15.09;100.00;101395.56;5085222;28;20032;-47
2022/07/27 07:26:06;;;;;;;4.90;0.70;;;;;;;15.25;100.00;101402.41;5082186;28;20034;-50
2022/07/27 07:28:31;;;;;;;0.68;0.20;;;;;;;15.39;100.00;101401.44;5085134;28;20391;-47
2022/07/27 07:30:57;;;;;;;1.58;0.30;;;;;;;15.49;100.00;101403.75;5084372;28;20039;-53
2022/07/27 07:33:22;;;;;;;2.33;0.98;;;;;;;15.57;100.00;101403.56;5086010;28;20046;-50
2022/07/27 07:35:48;;;;;;;4.55;0.70;;;;;;;15.67;100.00;101395.16;5086151;28;20500;-48
2022/07/27 07:38:13;;;;;;;2.33;0.35;;;;;;;15.79;100.00;101398.06;5085782;28;20071;-49
2022/07/27 07:40:39;;;;;;;3.28;0.60;;;;;;;15.86;100.00;101388.22;5088364;28;20031;-48
2022/07/27 07:43:04;;;;;;;2.30;0.30;;;;;;;15.96;100.00;101385.16;5085802;28;20059;-48
2022/07/27 07:45:32;;;;;;;3.20;0.55;;;;;;;16.09;100.00;101388.66;5081927;28;20059;-48
2022/07/27 07:47:58;;;;;;;1.80;0.43;;;;;;;16.23;100.00;101386.78;5086583;28;20111;-51
2022/07/27 07:50:24;;;;;;;4.35;0.47;;;;;;;16.39;100.00;101395.41;5058605;28;20809;-49
2022/07/27 07:52:51;;;;;;;5.20;0.30;;;;;;;16.48;100.00;101388.84;5074499;28;20142;-45
2022/07/27 07:55:22;;;;;;;1.05;0.10;;;;;;;16.53;100.00;101389.84;5084640;28;20028;-49
2022/07/27 07:57:48;;;;;;;1.13;0.50;;;;;;;16.58;100.00;101382.03;5086117;28;20464;-52
2022/07/27 08:00:14;;;;;;;3.92;0.30;;;;;;;16.66;100.00;101383.66;5076789;28;20075;-47
2022/07/27 08:02:51;;;;;;;1.55;0.40;;;;;;;16.73;100.00;101389.81;5084508;28;20040;-48
2022/07/27 08:05:16;;;;;;;4.35;1.15;;;;;;;16.73;100.00;101380.97;5086932;28;20055;-50
2022/07/27 08:07:43;;;;;;;4.85;0.77;;;;;;;16.82;100.00;101389.63;5085675;28;20028;-46
2022/07/27 08:10:10;;;;;;;3.03;0.73;;;;;;;16.85;100.00;101386.53;5081086;28;20039;-48
2022/07/27 08:12:37;;;;;;;2.72;0.50;;;;;;;16.89;100.00;101377.03;5084829;28;20128;-50
2022/07/27 08:15:05;;;;;;;5.55;0.85;;;;;;;17.00;100.00;101387.91;5083016;28;20028;-44
2022/07/27 08:17:30;;;;;;;1.65;0.22;;;;;;;17.21;100.00;101380.63;5085796;28;20065;-50
2022/07/27 08:19:55;;;;;;;2.17;0.68;;;;;;;17.41;100.00;101381.34;5085936;28;20448;-51
2022/07/27 08:22:21;;;;;;;1.58;0.40;;;;;;;17.60;100.00;101378.75;5086861;28;20340;-50
2022/07/27 08:24:47;;;;;;;6.03;0.68;;;;;;;17.82;100.00;101380.09;5088214;28;20058;-49
2022/07/27 08:27:13;;;;;;;4.90;0.30;;;;;;;17.99;100.00;101374.19;5083745;28;20039;-51
2022/07/27 08:29:38;;;;;;;1.13;0.10;;;;;;;18.21;100.00;101366.59;5086831;28;20434;-49
2022/07/27 08:32:04;;;;;;;2.83;0.22;;;;;;;18.47;100.00;101363.66;5082728;28;20028;-49
2022/07/27 08:34:29;;;;;;;2.97;0.55;;;;;;;18.70;100.00;101354.13;5084932;28;20054;-49
2022/07/27 08:36:55;;;;;;;4.72;1.27;;;;;;;18.95;100.00;101343.34;5085715;28;20036;-51
2022/07/27 08:39:20;;;;;;;10.95;0.90;;;;;;;19.10;100.00;101349.13;5083258;28;20032;-49
2022/07/27 08:41:46;;;;;;;1.42;0.20;;;;;;;18.97;100.00;101351.97;5082886;28;20672;-47
2022/07/27 08:44:13;;;;;;;6.20;0.40;;;;;;;18.89;100.00;101345.03;5078669;28;20491;-50
2022/07/27 08:46:39;;;;;;;0.95;0.47;;;;;;;18.86;100.00;101337.44;5084318;28;20031;-50
2022/07/27 08:49:06;;;;;;;0.20;0.20;;;;;;;18.90;100.00;101335.94;5086596;28;20350;-49
2022/07/27 08:51:32;;;;;;;2.35;1.00;;;;;;;18.91;100.00;101332.19;5083287;28;20476;-49
2022/07/27 08:53:58;;;;;;;5.15;0.15;;;;;;;18.98;100.00;101336.69;5078178;28;20023;-45
2022/07/27 08:56:24;;;;;;;0.88;0.73;;;;;;;19.05;100.00;101330.19;5086978;28;20032;-46
2022/07/27 08:58:49;;;;;;;2.80;0.13;;;;;;;19.30;100.00;101335.41;5079079;28;20349;-46
2022/07/27 09:01:15;;;;;;;1.40;0.32;;;;;;;19.59;100.00;101332.94;5075479;28;20055;-48
2022/07/27 09:03:40;;;;;;;2.55;0.50;;;;;;;19.76;100.00;101328.56;5080261;28;20032;-49
2022/07/27 09:06:05;;;;;;;1.10;0.05;;;;;;;20.00;100.00;101328.59;5071179;28;20016;-48
2022/07/27 09:08:32;;;;;;;1.75;0.20;;;;;;;20.19;100.00;101330.13;5077822;28;20020;-49
2022/07/27 09:10:58;;;;;;;8.02;0.17;;;;;;;20.40;100.00;101333.28;5082190;28;20020;-49
2022/07/27 09:13:28;;;;;;;1.88;0.28;;;;;;;20.59;100.00;101329.41;5081583;28;20168;-51
2022/07/27 09:15:57;;;;;;;2.88;0.68;;;;;;;20.86;100.00;101324.31;5085569;28;20057;-51
2022/07/27 09:18:25;;;;;;;3.63;0.30;;;;;;;20.83;100.00;101318.56;5079016;28;20276;-48
2022/07/27 09:21:27;;;;;;;6.45;0.85;;;;;;;20.84;100.00;101312.94;5076524;28;20028;-52
2022/07/27 09:23:58;;;;;;;1.58;0.20;;;;;;;20.89;100.00;101317.63;5012551;28;20033;-45
2022/07/27 09:26:27;;;;;;;4.90;0.60;;;;;;;20.54;100.00;101320.38;5070664;28;20040;-50
2022/07/27 09:28:56;;;;;;;1.67;0.20;;;;;;;20.69;100.00;101316.16;5085150;28;20086;-49
2022/07/27 09:31:22;;;;;;;1.00;0.05;;;;;;;21.07;100.00;101312.06;5084077;28;20504;-46
2022/07/27 09:33:48;;;;;;;1.08;0.10;;;;;;;21.11;100.00;101312.38;5083884;28;20503;-50
2022/07/27 09:36:16;;;;;;;3.78;0.00;;;;;;;20.98;100.00;101316.16;5080870;28;20082;-49
2022/07/27 09:38:50;;;;;;;2.60;0.13;;;;;;;20.93;100.00;101310.69;5083412;28;20020;-49
2022/07/27 09:41:17;;;;;;;1.70;0.20;;;;;;;21.12;100.00;101309.44;5081243;28;20075;-48
2022/07/27 09:43:47;;;;;;;0.40;0.10;;;;;;;21.08;100.00;101308.28;5082378;28;20082;-47
2022/07/27 09:46:13;;;;;;;3.92;0.35;;;;;;;21.13;100.00;101305.69;5083818;28;20036;-49
2022/07/27 09:48:39;;;;;;;3.55;0.60;;;;;;;21.13;100.00;101300.28;5081430;28;20032;-46
2022/07/27 09:51:10;;;;;;;2.75;0.13;;;;;;;21.00;100.00;101297.88;5084336;28;20208;-48
2022/07/27 09:53:36;;;;;;;2.80;0.60;;;;;;;21.09;100.00;101296.47;5082246;28;20122;-47
2022/07/27 09:56:01;;;;;;;1.75;0.10;;;;;;;21.18;100.00;101299.56;5081510;28;20043;-51
2022/07/27 09:58:49;;;;;;;2.78;0.00;;;;;;;21.13;100.00;101294.91;5081540;28;20343;-49
2022/07/27 10:01:20;;;;;;;2.80;0.20;;;;;;;21.00;100.00;101289.00;5081873;28;20028;-48
2022/07/27 10:03:49;;;;;;;3.17;0.70;;;;;;;20.86;100.00;101291.16;5082712;28;20026;-50
2022/07/27 10:06:15;;;;;;;1.85;0.10;;;;;;;20.80;100.00;101294.78;5082800;28;20028;-50
2022/07/27 10:08:45;;;;;;;1.95;0.08;;;;;;;20.84;100.00;101288.69;5079766;28;20103;-49
2022/07/27 10:11:12;;;;;;;1.90;0.20;;;;;;;20.94;100.00;101296.16;5082573;28;20110;-48
2022/07/27 10:13:38;;;;;;;3.03;0.45;;;;;;;20.95;100.00;101286.19;5081820;28;20028;-49
2022/07/27 10:16:04;;;;;;;2.00;0.15;;;;;;;20.81;100.00;101299.97;5084727;28;20040;-49
2022/07/27 10:19:01;;;;;;;4.22;0.65;;;;;;;20.69;100.00;101286.50;5084936;28;20036;-47
2022/07/27 10:21:27;;;;;;;1.85;0.10;;;;;;;20.45;100.00;101295.69;5087651;28;20076;-48
2022/07/27 10:23:55;;;;;;;3.83;0.20;;;;;;;20.15;100.00;101288.56;5083923;28;20028;-50
2022/07/27 10:26:26;;;;;;;0.43;0.03;;;;;;;20.10;100.00;101301.91;5080900;28;20040;-52
2022/07/27 10:28:59;;;;;;;1.95;0.00;;;;;;;19.95;100.00;101294.28;5086193;28;20032;-45
2022/07/27 10:31:36;;;;;;;1.65;0.38;;;;;;;19.77;100.00;101294.38;5086873;28;20020;-56
2022/07/27 10:34:04;;;;;;;3.83;0.15;;;;;;;19.68;100.00;101293.94;5087958;28;20032;-48
2022/07/27 10:36:30;;;;;;;2.42;0.40;;;;;;;19.58;100.00;101288.25;5087586;28;20369;-52
2022/07/27 10:38:58;;;;;;;1.05;0.20;;;;;;;19.55;100.00;101294.09;5087149;28;20043;-50
2022/07/27 10:41:25;;;;;;;2.42;0.10;;;;;;;19.55;100.00;101289.53;5085683;28;20387;-46
2022/07/27 10:44:13;;;;;;;4.65;0.30;;;;;;;19.60;100.00;101291.53;5082241;28;20036;-49
2022/07/27 10:46:42;;;;;;;2.15;0.65;;;;;;;19.64;100.00;101290.00;5084562;28;20532;-48
2022/07/27 10:49:17;;;;;;;4.03;0.32;;;;;;;19.64;100.00;101291.88;5078938;28;20028;-50
2022/07/27 10:51:43;;;;;;;0.98;0.50;;;;;;;19.63;100.00;101285.69;5080946;28;20046;-46
2022/07/27 10:54:38;;;;;;;0.90;0.17;;;;;;;19.54;100.00;101282.53;5083592;28;20144;-47
2022/07/27 10:57:08;;;;;;;3.97;0.93;;;;;;;19.56;100.00;101280.41;5068940;28;20036;-48
2022/07/27 10:59:39;;;;;;;2.15;0.15;;;;;;;19.71;100.00;101281.88;5083483;28;20099;-51
2022/07/27 11:02:09;;;;;;;1.83;0.45;;;;;;;19.86;100.00;101279.56;5082543;28;20062;-55
2022/07/27 11:04:44;;;;;;;0.67;0.20;;;;;;;20.09;100.00;101272.53;5083402;28;20105;-47
2022/07/27 11:07:10;;;;;;;1.13;0.20;;;;;;;20.20;100.00;101271.69;5080108;28;20368;-49
2022/07/27 11:09:40;;;;;;;0.93;0.00;;;;;;;20.32;100.00;101272.50;5077341;28;20036;-50
2022/07/27 11:12:10;;;;;;;2.83;0.50;;;;;;;20.55;100.00;101270.84;5079385;28;20246;-46
2022/07/27 11:14:48;;;;;;;0.82;0.20;;;;;;;20.68;100.00;101262.50;5081332;28;20041;-52
2022/07/27 11:17:16;;;;;;;0.13;0.10;;;;;;;20.77;100.00;101263.75;5077162;28;20033;-49
2022/07/27 11:19:41;;;;;;;0.68;0.20;;;;;;;20.85;100.00;101257.16;5083080;28;20469;-49